Main page
METAR-TAF:

METAR-TAF

Airports :

King Abdulaziz International Airport

Jeddah, Saudi Arabia

latitude: 21-42N, longitude: 039-11E, elevation: 15 m

Current weather observation

The report was made 1 hour and 3 minutes ago, at 09:00 UTC
Wind 6 kt from the West
Temperature 33°C
Humidity 56%
Pressure 1007 hPa
Visibility 10 km or more
no clouds below 1500 m and no cumulonimbus

METAR: OEJN 090900Z 27006KT CAVOK 33/23 Q1007 NOSIG

Time: 13:03 (10:03 UTC)

Forecast

The report was made 5 hours and 3 minutes ago, at 05:00 UTC
Forecast valid from 09 at 06 UTC to 10 at 12 UTC
Wind 10 kt from the West/Northwest
Visibility 10 km or more
Few clouds at a height of 4000 ft
Becoming
from 09 at 11 UTC to 09 at 13 UTC
Wind 15 kt from the West/Southwest
Becoming
from 09 at 17 UTC to 09 at 19 UTC
Wind 10 kt from the East

TAF: OEJN 090500Z 0906/1012 30010KT 9999 FEW040 BECMG 0911/0913 24015KT BECMG 0917/0919 08010KT

Weather observations and forecasts of more than 4000 airports (METAR and TAF reports).

The available stations are represented by yellow and red dots on the map.

Hover mouse over dot to see the name of the station.

Then click to see weather observations and forecasts.

To change the map : click on the green buttons with a black cross to zoom in, on the green button with a dash to zoom out, or on the green arrows for adjacent maps.


METAR-TAF: